Latest Coastal Weather Observations for Cape Flattery

IDQ60701

Issued at 8:51 am EST Wednesday 20 February 2019 (issued every 10 minutes, with the page automatically refreshed every 10 minutes)

About coastal observations | Map of coastal stations | Coastal observations for QLD | Marine services | Other Formats
Station Details ID: 031213 Name: CAPE FLATTERY Lat: -14.97 Lon: 145.31 Height: 18.5 m
Data from the previous 72 hours. | See also: Recent months at Cape Flattery
Date/Time
EST
Wind Sea
Height
m
Swell Vis
km
Cloud Weather Temp
°C
Press
hPa
Rain since
9am
mm
Dir  Spd
kts
Gust
kts
Height
m
Period
s
Dir
20/08:30am WSW 7 10 - - - - - - - 28.2 1009.2 0.0
20/08:00am WNW 8 11 - - - - - - - 27.8 1009.0 0.0
20/07:30am SW 6 9 - - - - - - - 26.3 1009.2 0.0
20/07:00am SSW 4 6 - - - - - - - 25.1 1009.1 0.0
20/06:30am WNW 3 5 - - - - - - - 25.0 1008.6 0.0
20/06:00am W 5 7 - - - - - - - 25.3 1008.5 0.0
20/05:30am W 5 7 - - - - - - - 25.5 1008.3 0.0
20/05:00am W 7 11 - - - - - - - 26.0 1008.1 0.0
20/04:30am WSW 7 12 - - - - - - - 26.5 1008.5 0.0
20/04:00am WNW 4 5 - - - - - - - 26.4 1008.1 0.0
20/03:30am NW 9 14 - - - - - - - 27.1 1007.9 0.0
20/03:00am NW 8 10 - - - - - - - 27.2 1007.9 0.0
20/02:30am NW 9 13 - - - - - - - 27.5 1008.4 0.0
20/02:00am WNW 8 10 - - - - - - - 27.1 1008.8 0.0
20/01:30am WNW 5 7 - - - - - - - 26.7 1008.8 0.0
20/01:00am WNW 6 7 - - - - - - - 27.0 1008.7 0.0
20/12:30am WNW 6 9 - - - - - - - 27.1 1009.1 0.0
20/12:00am W 5 7 - - - - - - - 27.3 1008.7 0.0
 
Date/Time
EST
Wind Sea
Height
m
Swell Vis
km
Cloud Weather Temp
°C
Press
hPa
Rain since
9am
mm
Dir  Spd
kts
Gust
kts
Height
m
Period
s
Dir
19/11:30pm SW 5 7 - - - - - - - 27.6 1008.9 0.0
19/11:00pm WSW 7 13 - - - - - - - 27.8 1009.6 0.0
19/10:30pm WNW 6 8 - - - - - - - 28.3 1009.6 0.0
19/10:00pm W 7 11 - - - - - - - 28.8 1009.4 0.0
19/09:30pm W 7 11 - - - - - - - 29.6 1009.1 0.0
19/09:00pm NW 9 11 - - - - - - - 30.0 1008.5 0.0
19/08:30pm NNW 9 12 - - - - - - - 30.0 1008.1 0.0
19/08:00pm NNW 9 11 - - - - - - - 30.0 1007.3 0.0
19/07:30pm NNW 7 8 - - - - - - - 30.2 1007.2 0.0
19/07:00pm NNW 8 10 - - - - - - - 30.5 1006.8 0.0
19/06:30pm NNW 8 11 - - - - - - - 31.0 1006.7 0.0
19/06:00pm NNW 9 11 - - - - - - - 31.2 1006.5 0.0
19/05:30pm NNW 11 15 - - - - - - - 31.0 1006.2 0.0
19/05:00pm NNW 12 16 - - - - - - - 31.3 1005.9 0.0
19/04:30pm NNW 12 16 - - - - - - - 31.5 1005.6 0.0
19/04:00pm NNW 12 16 - - - - - - - 31.4 1005.6 0.0
19/03:30pm NNW 14 20 - - - - - - - 31.0 1005.9 0.0
19/03:00pm NNW 14 18 - - - - - - - 32.5 1006.2 0.0
19/02:30pm NNW 13 17 - - - - - - - 33.1 1006.7 0.0
19/02:00pm NNW 13 18 - - - - - - - 33.2 1006.8 0.0
19/01:30pm NNW 11 16 - - - - - - - 34.1 1007.3 0.0
19/01:00pm N 12 18 - - - - - - - 34.0 1007.9 0.0
19/12:30pm W 8 13 - - - - - - - 35.8 1008.3 0.0
19/12:00pm N 10 14 - - - - - - - 32.6 1009.0 0.0
19/11:30am N 10 13 - - - - - - - 31.9 1009.4 0.0
19/11:00am N 7 10 - - - - - - - 32.8 1009.8 0.0
19/10:30am NW 6 11 - - - - - - - 31.9 1010.1 0.0
19/10:00am WNW 7 11 - - - - - - - 31.9 1010.4 0.0
19/09:30am W 10 15 - - - - - - - 31.0 1010.7 0.0
19/09:00am WSW 10 13 - - - - - - - 29.9 1010.8 0.0
19/08:30am W 9 14 - - - - - - - 29.3 1010.7 0.0
19/08:00am WSW 7 9 - - - - - - - 28.1 1010.8 0.0
19/07:30am SW 5 7 - - - - - - - 27.1 1010.7 0.0
19/07:00am CALM 0 0 - - - - - - - 25.7 1010.2 0.0
19/06:30am CALM 0 0 - - - - - - - 24.6 1010.0 0.0
19/06:00am W 1 4 - - - - - - - 24.7 1009.8 0.0
19/05:30am WNW 5 7 - - - - - - - 25.7 1009.5 0.0
19/05:00am NW 6 9 - - - - - - - 25.9 1009.3 0.0
19/04:30am NW 6 8 - - - - - - - 25.8 1009.5 0.0
19/04:00am NW 6 9 - - - - - - - 26.0 1009.3 0.0
19/03:30am NW 8 9 - - - - - - - 26.4 1009.3 0.0
19/03:00am NW 7 10 - - - - - - - 26.2 1009.4 0.0
19/02:30am WNW 5 7 - - - - - - - 25.9 1009.7 0.0
19/02:00am NW 6 8 - - - - - - - 26.4 1009.8 0.0
19/01:30am WNW 7 9 - - - - - - - 26.5 1010.2 0.0
19/01:00am WNW 6 8 - - - - - - - 26.7 1010.5 0.0
19/12:30am W 7 10 - - - - - - - 27.2 1010.5 0.0
19/12:00am NW 12 16 - - - - - - - 28.5 1010.8 0.0
 
Date/Time
EST
Wind Sea
Height
m
Swell Vis
km
Cloud Weather Temp
°C
Press
hPa
Rain since
9am
mm
Dir  Spd
kts
Gust
kts
Height
m
Period
s
Dir
18/11:30pm NNW 12 15 - - - - - - - 28.6 1010.6 0.0
18/11:00pm NNW 11 15 - - - - - - - 28.6 1010.9 0.0
18/10:30pm NNW 10 14 - - - - - - - 28.4 1011.0 0.0
18/10:00pm NNW 9 13 - - - - - - - 28.4 1010.9 0.0
18/09:30pm NNW 9 12 - - - - - - - 28.4 1010.6 0.0
18/09:00pm NNW 9 13 - - - - - - - 28.3 1010.0 0.0
18/08:30pm NW 9 13 - - - - - - - 28.4 1009.9 0.0
18/08:00pm NNW 7 9 - - - - - - - 28.2 1009.4 0.0
18/07:30pm NNW 8 10 - - - - - - - 28.2 1009.0 0.0
18/07:00pm NNW 9 13 - - - - - - - 28.3 1008.7 0.0
18/06:30pm NNW 9 12 - - - - - - - 28.4 1008.6 0.0
18/06:00pm NNW 9 12 - - - - - - - 28.9 1008.6 0.0
18/05:30pm N 9 13 - - - - - - - 29.5 1007.8 0.0
18/05:00pm N 9 12 - - - - - - - 30.0 1007.4 0.0
18/04:30pm N 9 13 - - - - - - - 30.3 1007.3 0.0
18/04:00pm N 9 12 - - - - - - - 30.5 1007.6 0.0
18/03:30pm N 9 13 - - - - - - - 30.5 1007.9 0.0
18/03:00pm N 9 14 - - - - - - - 31.1 1008.4 0.0
18/02:30pm N 8 13 - - - - - - - 31.1 1008.7 0.0
18/02:00pm N 9 12 - - - - - - - 30.6 1009.1 0.0
18/01:30pm N 7 12 - - - - - - - 30.8 1009.6 0.0
18/01:00pm NE 8 11 - - - - - - - 31.3 1010.0 0.0
18/12:30pm NE 7 11 - - - - - - - 29.8 1010.6 0.0
18/12:00pm NNE 7 10 - - - - - - - 29.7 1011.2 0.0
18/11:30am NNE 7 10 - - - - - - - 28.5 1011.5 0.0
18/11:00am NE 6 9 - - - - - - - 28.1 1011.9 0.0
18/10:30am NE 7 9 - - - - - - - 27.4 1012.0 0.0
18/10:00am E 7 9 - - - - - - - 27.5 1012.3 0.0
18/09:30am ENE 5 7 - - - - - - - 26.9 1012.3 0.0
18/09:00am ENE 6 8 - - - - - - - 26.7 1012.1 0.0
18/08:30am E 5 8 - - - - - - - 25.9 1011.8 0.0
18/08:00am ESE 6 9 - - - - - - - 25.3 1011.7 0.0
18/07:30am SE 6 11 - - - - - - - 25.2 1011.3 0.0
18/07:00am CALM 0 0 - - - - - - - 25.2 1010.8 0.0
18/06:30am W 1 4 - - - - - - - 25.2 1010.1 0.0
18/06:00am CALM 0 0 - - - - - - - 25.1 1009.8 0.0
18/05:30am WSW 3 5 - - - - - - - 25.1 1009.5 0.0
18/05:00am WSW 5 7 - - - - - - - 25.2 1009.5 0.0
18/04:30am CALM 0 0 - - - - - - - 25.1 1009.3 0.0
18/04:00am CALM 0 0 - - - - - - - 25.4 1009.1 0.0
18/03:30am W 1 3 - - - - - - - 25.2 1009.0 0.0
18/03:00am SW 2 4 - - - - - - - 25.0 1009.2 0.0
18/02:30am CALM 0 0 - - - - - - - 25.4 1009.1 0.0
18/02:00am CALM 0 0 - - - - - - - 25.1 1009.6 0.0
18/01:30am CALM 0 0 - - - - - - - 25.0 1009.6 0.0
18/01:00am CALM 0 0 - - - - - - - 25.3 1010.2 0.0
18/12:30am CALM 0 0 - - - - - - - 25.4 1010.6 0.0
18/12:00am CALM 0 0 - - - - - - - 25.5 1010.6 0.0
 
Date/Time
EST
Wind Sea
Height
m
Swell Vis
km
Cloud Weather Temp
°C
Press
hPa
Rain since
9am
mm
Dir  Spd
kts
Gust
kts
Height
m
Period
s
Dir
17/11:30pm CALM 0 0 - - - - - - - 25.4 1011.0 0.0
17/11:00pm CALM 0 0 - - - - - - - 25.9 1011.1 0.0
17/10:30pm CALM 0 0 - - - - - - - 26.0 1011.1 0.0
17/10:00pm E 4 5 - - - - - - - 25.9 1010.8 0.0
17/09:30pm E 5 6 - - - - - - - 25.9 1010.2 0.0
17/09:00pm E 5 6 - - - - - - - 25.9 1010.2 0.0
17/08:30pm E 4 5 - - - - - - - 26.1 1010.0 0.0
17/08:00pm ESE 4 5 - - - - - - - 26.4 1009.5 0.0
17/07:30pm E 6 7 - - - - - - - 26.6 1009.2 0.0
17/07:00pm CALM 0 3 - - - - - - - 27.3 1009.4 0.0
17/06:30pm E 5 7 - - - - - - - 27.8 1008.7 0.0
17/06:00pm SE 8 11 - - - - - - - 28.5 1008.5 0.0
17/05:30pm ESE 7 10 - - - - - - - 29.5 1008.5 0.0
17/05:00pm ESE 9 13 - - - - - - - 30.1 1008.3 0.0
17/04:30pm ESE 12 17 - - - - - - - 30.2 1007.8 0.0
17/04:00pm ESE 11 16 - - - - - - - 30.8 1007.9 0.0
17/03:30pm ESE 13 17 - - - - - - - 31.0 1008.3 0.0
17/03:00pm ESE 12 17 - - - - - - - 31.3 1008.8 0.0
17/02:30pm SE 10 14 - - - - - - - 31.3 1009.3 0.0
17/02:00pm SE 10 15 - - - - - - - 31.6 1009.9 0.0
17/01:30pm SE 10 13 - - - - - - - 31.5 1010.4 0.0
17/01:00pm SE 10 15 - - - - - - - 31.8 1010.9 0.0
17/12:30pm SSE 10 14 - - - - - - - 32.0 1011.3 0.0
17/12:00pm SSE 10 14 - - - - - - - 32.5 1011.5 0.0
17/11:30am SSE 9 13 - - - - - - - 31.4 1011.7 0.0
17/11:00am SSE 10 14 - - - - - - - 31.3 1012.0 0.0
17/10:30am SE 10 14 - - - - - - - 30.8 1012.1 0.0
17/10:00am SSE 8 12 - - - - - - - 30.3 1012.3 0.0
17/09:30am SSE 9 14 - - - - - - - 30.3 1012.4 0.0
17/09:00am S 8 11 - - - - - - - 29.8 1012.1 0.0

Other formats

Comma delimited format used in spreadsheet applications
http://www.bom.gov.au/fwo/IDQ60701/IDQ60701.94188.axf

JavaScript Object Notation format (JSON) in row-major order
http://www.bom.gov.au/fwo/IDQ60701/IDQ60701.94188.json

Data quality

Most of these data are generated automatically and are frequently updated. Quality checks on data are not normally performed. It is possible for incorrect values to appear. Refer to information at About Latest Weather Observations and please check the disclaimer before using these data.